sensor_id;sensor_type;location;lat;lon;timestamp;pressure;altitude;pressure_sealevel;temperature;humidity
21594;BME280;10959;51.328;7.322;2024-03-08T00:00:08;99132.63;;;3.81;59.43
21594;BME280;10959;51.328;7.322;2024-03-08T00:02:37;99129.16;;;3.87;59.42
21594;BME280;10959;51.328;7.322;2024-03-08T00:05:05;99130.84;;;3.95;59.11
21594;BME280;10959;51.328;7.322;2024-03-08T00:07:31;99125.50;;;3.95;58.91
21594;BME280;10959;51.328;7.322;2024-03-08T00:09:58;99129.19;;;3.94;59.20
21594;BME280;10959;51.328;7.322;2024-03-08T00:12:24;99131.44;;;3.83;58.46
21594;BME280;10959;51.328;7.322;2024-03-08T00:14:51;99131.16;;;3.72;58.79
21594;BME280;10959;51.328;7.322;2024-03-08T00:17:19;99136.31;;;3.67;59.23
21594;BME280;10959;51.328;7.322;2024-03-08T00:19:45;99137.72;;;3.56;59.32
21594;BME280;10959;51.328;7.322;2024-03-08T00:22:11;99136.41;;;3.46;59.60
21594;BME280;10959;51.328;7.322;2024-03-08T00:24:38;99128.59;;;3.44;59.63
21594;BME280;10959;51.328;7.322;2024-03-08T00:27:05;99126.34;;;3.48;59.52
21594;BME280;10959;51.328;7.322;2024-03-08T00:29:31;99126.50;;;3.40;59.45
21594;BME280;10959;51.328;7.322;2024-03-08T00:31:58;99121.53;;;3.30;59.87
21594;BME280;10959;51.328;7.322;2024-03-08T00:34:26;99108.75;;;3.19;60.79
21594;BME280;10959;51.328;7.322;2024-03-08T00:36:52;99119.47;;;3.25;60.11
21594;BME280;10959;51.328;7.322;2024-03-08T00:39:19;99114.72;;;3.27;60.48
21594;BME280;10959;51.328;7.322;2024-03-08T00:41:46;99110.81;;;3.23;59.82
21594;BME280;10959;51.328;7.322;2024-03-08T00:44:13;99113.66;;;3.15;60.85
21594;BME280;10959;51.328;7.322;2024-03-08T00:46:39;99116.13;;;3.17;61.05
21594;BME280;10959;51.328;7.322;2024-03-08T00:49:05;99106.59;;;3.01;61.00
21594;BME280;10959;51.328;7.322;2024-03-08T00:51:34;99111.88;;;2.95;61.39
21594;BME280;10959;51.328;7.322;2024-03-08T00:54:01;99110.03;;;2.95;61.16
21594;BME280;10959;51.328;7.322;2024-03-08T00:56:27;99111.88;;;2.95;60.70
21594;BME280;10959;51.328;7.322;2024-03-08T00:58:54;99101.97;;;2.89;61.91
21594;BME280;10959;51.328;7.322;2024-03-08T01:01:20;99099.09;;;2.90;61.37
21594;BME280;10959;51.328;7.322;2024-03-08T01:03:47;99092.47;;;2.80;61.93
21594;BME280;10959;51.328;7.322;2024-03-08T01:06:13;99096.97;;;2.79;62.00
21594;BME280;10959;51.328;7.322;2024-03-08T01:08:41;99096.16;;;2.78;61.54
21594;BME280;10959;51.328;7.322;2024-03-08T01:11:08;99087.03;;;2.66;62.19
21594;BME280;10959;51.328;7.322;2024-03-08T01:13:35;99078.75;;;2.55;62.33
21594;BME280;10959;51.328;7.322;2024-03-08T01:16:01;99075.28;;;2.61;62.64
21594;BME280;10959;51.328;7.322;2024-03-08T01:18:29;99071.38;;;2.57;62.89
21594;BME280;10959;51.328;7.322;2024-03-08T01:20:55;99078.91;;;2.47;62.96
21594;BME280;10959;51.328;7.322;2024-03-08T01:23:22;99070.50;;;2.50;62.72
21594;BME280;10959;51.328;7.322;2024-03-08T01:25:50;99069.69;;;2.49;62.67
21594;BME280;10959;51.328;7.322;2024-03-08T01:28:22;99058.16;;;2.49;62.92
21594;BME280;10959;51.328;7.322;2024-03-08T01:30:48;99057.88;;;2.65;62.79
21594;BME280;10959;51.328;7.322;2024-03-08T01:33:15;99055.59;;;2.62;62.63
21594;BME280;10959;51.328;7.322;2024-03-08T01:35:41;99049.88;;;2.65;62.33
21594;BME280;10959;51.328;7.322;2024-03-08T01:38:08;99046.91;;;2.53;62.51
21594;BME280;10959;51.328;7.322;2024-03-08T01:40:34;99047.94;;;2.52;62.67
21594;BME280;10959;51.328;7.322;2024-03-08T01:43:17;99048.25;;;2.43;63.44
21594;BME280;10959;51.328;7.322;2024-03-08T01:45:44;99045.94;;;2.61;62.53
21594;BME280;10959;51.328;7.322;2024-03-08T01:48:10;99033.50;;;2.74;62.43
21594;BME280;10959;51.328;7.322;2024-03-08T01:50:37;99041.97;;;2.85;61.80
21594;BME280;10959;51.328;7.322;2024-03-08T01:53:04;99030.66;;;2.83;62.14
21594;BME280;10959;51.328;7.322;2024-03-08T01:55:31;99035.78;;;2.84;61.83
21594;BME280;10959;51.328;7.322;2024-03-08T01:57:59;99027.72;;;2.71;62.16
21594;BME280;10959;51.328;7.322;2024-03-08T02:00:27;99031.63;;;2.75;62.32
21594;BME280;10959;51.328;7.322;2024-03-08T02:02:55;99013.53;;;2.70;62.43
21594;BME280;10959;51.328;7.322;2024-03-08T02:05:23;99025.28;;;2.76;62.27
21594;BME280;10959;51.328;7.322;2024-03-08T02:07:49;99024.00;;;2.72;62.63
21594;BME280;10959;51.328;7.322;2024-03-08T02:10:17;99023.16;;;2.65;62.41
21594;BME280;10959;51.328;7.322;2024-03-08T02:12:43;99015.28;;;2.50;63.16
21594;BME280;10959;51.328;7.322;2024-03-08T02:15:10;99013.50;;;2.64;62.44
21594;BME280;10959;51.328;7.322;2024-03-08T02:17:38;99013.94;;;2.67;62.86
21594;BME280;10959;51.328;7.322;2024-03-08T02:20:05;99006.50;;;2.63;62.58
21594;BME280;10959;51.328;7.322;2024-03-08T02:22:35;99005.97;;;2.74;62.90
21594;BME280;10959;51.328;7.322;2024-03-08T02:25:03;99006.81;;;2.74;62.01
21594;BME280;10959;51.328;7.322;2024-03-08T02:27:30;98992.63;;;2.74;62.32
21594;BME280;10959;51.328;7.322;2024-03-08T02:29:58;99005.31;;;2.65;62.32
21594;BME280;10959;51.328;7.322;2024-03-08T02:32:25;98993.38;;;2.61;62.59
21594;BME280;10959;51.328;7.322;2024-03-08T02:34:56;98998.31;;;2.64;62.74
21594;BME280;10959;51.328;7.322;2024-03-08T02:37:25;98999.53;;;2.62;62.54
21594;BME280;10959;51.328;7.322;2024-03-08T02:39:52;98995.03;;;2.62;62.35
21594;BME280;10959;51.328;7.322;2024-03-08T02:42:19;98990.09;;;2.66;62.08
21594;BME280;10959;51.328;7.322;2024-03-08T02:44:45;98992.16;;;2.64;62.20
21594;BME280;10959;51.328;7.322;2024-03-08T02:47:12;98995.03;;;2.62;63.13
21594;BME280;10959;51.328;7.322;2024-03-08T02:49:38;98990.88;;;2.53;62.50
21594;BME280;10959;51.328;7.322;2024-03-08T02:52:05;98984.13;;;2.64;62.70
21594;BME280;10959;51.328;7.322;2024-03-08T02:54:32;98983.97;;;2.65;62.59
21594;BME280;10959;51.328;7.322;2024-03-08T02:57:01;98978.13;;;2.55;62.61
21594;BME280;10959;51.328;7.322;2024-03-08T02:59:29;98981.84;;;2.61;62.53
21594;BME280;10959;51.328;7.322;2024-03-08T03:01:55;98969.78;;;2.65;62.32
21594;BME280;10959;51.328;7.322;2024-03-08T03:04:22;98973.28;;;2.72;62.04
21594;BME280;10959;51.328;7.322;2024-03-08T03:06:48;98959.78;;;2.80;61.83
21594;BME280;10959;51.328;7.322;2024-03-08T03:09:14;98958.16;;;2.86;61.81
21594;BME280;10959;51.328;7.322;2024-03-08T03:11:44;98951.53;;;2.75;62.11
21594;BME280;10959;51.328;7.322;2024-03-08T03:14:11;98958.53;;;2.76;62.41
21594;BME280;10959;51.328;7.322;2024-03-08T03:16:38;98956.28;;;2.80;62.11
21594;BME280;10959;51.328;7.322;2024-03-08T03:19:05;98954.84;;;2.77;62.12
21594;BME280;10959;51.328;7.322;2024-03-08T03:21:32;98952.38;;;2.82;61.78
21594;BME280;10959;51.328;7.322;2024-03-08T03:24:01;98947.91;;;2.89;62.16
21594;BME280;10959;51.328;7.322;2024-03-08T03:26:27;98956.94;;;2.88;61.13
21594;BME280;10959;51.328;7.322;2024-03-08T03:28:54;98936.78;;;2.86;61.38
21594;BME280;10959;51.328;7.322;2024-03-08T03:31:22;98933.69;;;2.82;61.36
21594;BME280;10959;51.328;7.322;2024-03-08T03:33:50;98928.97;;;2.84;61.72
21594;BME280;10959;51.328;7.322;2024-03-08T03:36:17;98928.56;;;2.87;61.26
21594;BME280;10959;51.328;7.322;2024-03-08T03:38:43;98930.84;;;2.90;61.11
21594;BME280;10959;51.328;7.322;2024-03-08T03:41:10;98932.31;;;2.93;61.67
21594;BME280;10959;51.328;7.322;2024-03-08T03:43:36;98930.63;;;2.85;60.90
21594;BME280;10959;51.328;7.322;2024-03-08T03:46:05;98929.41;;;2.88;61.68
21594;BME280;10959;51.328;7.322;2024-03-08T03:48:33;98927.16;;;2.91;61.20
21594;BME280;10959;51.328;7.322;2024-03-08T03:51:00;98929.00;;;2.91;61.20
21594;BME280;10959;51.328;7.322;2024-03-08T03:53:26;98928.16;;;2.90;61.72
21594;BME280;10959;51.328;7.322;2024-03-08T03:55:52;98919.13;;;2.91;61.40
21594;BME280;10959;51.328;7.322;2024-03-08T03:58:19;98917.09;;;2.93;61.97
21594;BME280;10959;51.328;7.322;2024-03-08T04:00:47;98919.28;;;2.76;61.40
21594;BME280;10959;51.328;7.322;2024-03-08T04:03:14;98914.53;;;2.72;61.91
21594;BME280;10959;51.328;7.322;2024-03-08T04:05:43;98914.78;;;2.77;62.11
21594;BME280;10959;51.328;7.322;2024-03-08T04:08:10;98921.34;;;2.81;61.75
21594;BME280;10959;51.328;7.322;2024-03-08T04:10:36;98915.63;;;2.84;61.33
21594;BME280;10959;51.328;7.322;2024-03-08T04:13:03;98917.88;;;2.87;61.72
21594;BME280;10959;51.328;7.322;2024-03-08T04:15:30;98916.25;;;2.86;62.17
21594;BME280;10959;51.328;7.322;2024-03-08T04:17:56;98913.38;;;2.88;61.49
21594;BME280;10959;51.328;7.322;2024-03-08T04:20:25;98915.47;;;2.92;61.41
21594;BME280;10959;51.328;7.322;2024-03-08T04:22:53;98910.94;;;2.93;61.18
21594;BME280;10959;51.328;7.322;2024-03-08T04:25:19;98908.06;;;2.94;61.05
21594;BME280;10959;51.328;7.322;2024-03-08T04:27:46;98900.44;;;2.91;61.49
21594;BME280;10959;51.328;7.322;2024-03-08T04:30:14;98908.84;;;2.88;61.48
21594;BME280;10959;51.328;7.322;2024-03-08T04:32:41;98903.31;;;2.83;61.10
21594;BME280;10959;51.328;7.322;2024-03-08T04:35:08;98896.31;;;2.82;61.28
21594;BME280;10959;51.328;7.322;2024-03-08T04:37:34;98901.03;;;2.80;61.69
21594;BME280;10959;51.328;7.322;2024-03-08T04:40:03;98898.91;;;2.69;61.88
21594;BME280;10959;51.328;7.322;2024-03-08T04:42:30;98901.59;;;2.62;61.90
21594;BME280;10959;51.328;7.322;2024-03-08T04:44:58;98896.44;;;2.61;62.06
21594;BME280;10959;51.328;7.322;2024-03-08T04:47:24;98905.50;;;2.66;62.05
21594;BME280;10959;51.328;7.322;2024-03-08T04:49:51;98897.28;;;2.68;61.61
21594;BME280;10959;51.328;7.322;2024-03-08T04:52:17;98898.09;;;2.62;61.41
21594;BME280;10959;51.328;7.322;2024-03-08T04:54:44;98897.88;;;2.63;61.87
21594;BME280;10959;51.328;7.322;2024-03-08T04:57:12;98890.25;;;2.60;62.40
21594;BME280;10959;51.328;7.322;2024-03-08T04:59:38;98888.81;;;2.58;62.26
21594;BME280;10959;51.328;7.322;2024-03-08T05:02:05;98888.41;;;2.54;62.25
21594;BME280;10959;51.328;7.322;2024-03-08T05:04:32;98880.78;;;2.51;62.43
21594;BME280;10959;51.328;7.322;2024-03-08T05:06:58;98882.84;;;2.49;61.92
21594;BME280;10959;51.328;7.322;2024-03-08T05:09:26;98875.66;;;2.50;62.40
21594;BME280;10959;51.328;7.322;2024-03-08T05:11:54;98884.06;;;2.47;62.24
21594;BME280;10959;51.328;7.322;2024-03-08T05:14:23;98888.97;;;2.43;62.74
21594;BME280;10959;51.328;7.322;2024-03-08T05:16:50;98885.47;;;2.43;62.63
21594;BME280;10959;51.328;7.322;2024-03-08T05:19:17;98875.03;;;2.48;62.41
21594;BME280;10959;51.328;7.322;2024-03-08T05:21:43;98881.63;;;2.52;62.38
21594;BME280;10959;51.328;7.322;2024-03-08T05:24:10;98866.63;;;2.51;62.69
21594;BME280;10959;51.328;7.322;2024-03-08T05:26:37;98869.31;;;2.57;62.32
21594;BME280;10959;51.328;7.322;2024-03-08T05:29:03;98874.91;;;2.62;62.75
21594;BME280;10959;51.328;7.322;2024-03-08T05:31:38;98866.03;;;2.55;62.62
21594;BME280;10959;51.328;7.322;2024-03-08T05:34:09;98869.06;;;2.46;62.44
21594;BME280;10959;51.328;7.322;2024-03-08T05:36:35;98872.38;;;2.48;63.04
21594;BME280;10959;51.328;7.322;2024-03-08T05:39:02;98857.59;;;2.52;62.67
21594;BME280;10959;51.328;7.322;2024-03-08T05:41:31;98863.97;;;2.57;62.91
21594;BME280;10959;51.328;7.322;2024-03-08T05:43:57;98866.44;;;2.59;62.75
21594;BME280;10959;51.328;7.322;2024-03-08T05:46:24;98854.56;;;2.61;63.24
21594;BME280;10959;51.328;7.322;2024-03-08T05:48:52;98850.88;;;2.62;63.06
21594;BME280;10959;51.328;7.322;2024-03-08T05:51:19;98856.22;;;2.62;62.73
21594;BME280;10959;51.328;7.322;2024-03-08T05:53:47;98856.81;;;2.64;63.06
21594;BME280;10959;51.328;7.322;2024-03-08T05:56:13;98845.94;;;2.66;62.83
21594;BME280;10959;51.328;7.322;2024-03-08T05:58:39;98850.03;;;2.62;63.05
21594;BME280;10959;51.328;7.322;2024-03-08T06:01:06;98849.63;;;2.65;62.90
21594;BME280;10959;51.328;7.322;2024-03-08T06:03:33;98851.25;;;2.66;63.38
21594;BME280;10959;51.328;7.322;2024-03-08T06:06:01;98848.81;;;2.64;63.51
21594;BME280;10959;51.328;7.322;2024-03-08T06:08:27;98843.66;;;2.63;63.51
21594;BME280;10959;51.328;7.322;2024-03-08T06:10:55;98840.81;;;2.64;62.97
21594;BME280;10959;51.328;7.322;2024-03-08T06:13:24;98851.69;;;2.69;63.12
21594;BME280;10959;51.328;7.322;2024-03-08T06:15:50;98843.50;;;2.71;63.12
21594;BME280;10959;51.328;7.322;2024-03-08T06:18:17;98851.72;;;2.76;62.99
21594;BME280;10959;51.328;7.322;2024-03-08T06:20:43;98851.31;;;2.79;63.25
21594;BME280;10959;51.328;7.322;2024-03-08T06:23:12;98845.97;;;2.79;63.15
21594;BME280;10959;51.328;7.322;2024-03-08T06:25:42;98843.91;;;2.81;63.28
21594;BME280;10959;51.328;7.322;2024-03-08T06:28:09;98848.03;;;2.90;63.66
21594;BME280;10959;51.328;7.322;2024-03-08T06:30:36;98855.66;;;2.93;64.09
21594;BME280;10959;51.328;7.322;2024-03-08T06:33:02;98847.66;;;3.06;63.32
21594;BME280;10959;51.328;7.322;2024-03-08T06:35:29;98839.84;;;3.11;63.43
21594;BME280;10959;51.328;7.322;2024-03-08T06:37:57;98849.34;;;3.27;62.73
21594;BME280;10959;51.328;7.322;2024-03-08T06:40:24;98856.53;;;3.40;62.49
21594;BME280;10959;51.328;7.322;2024-03-08T06:42:51;98845.44;;;3.49;63.18
21594;BME280;10959;51.328;7.322;2024-03-08T06:45:18;98850.16;;;3.54;62.93
21594;BME280;10959;51.328;7.322;2024-03-08T06:47:46;98851.41;;;3.51;62.26
21594;BME280;10959;51.328;7.322;2024-03-08T06:50:13;98852.66;;;3.68;62.83
21594;BME280;10959;51.328;7.322;2024-03-08T06:52:40;98852.63;;;3.75;61.98
21594;BME280;10959;51.328;7.322;2024-03-08T06:55:08;98846.66;;;3.86;62.37
21594;BME280;10959;51.328;7.322;2024-03-08T06:57:38;98854.63;;;3.99;61.65
21594;BME280;10959;51.328;7.322;2024-03-08T07:00:06;98852.53;;;4.14;61.43
21594;BME280;10959;51.328;7.322;2024-03-08T07:02:34;98846.34;;;4.27;61.19
21594;BME280;10959;51.328;7.322;2024-03-08T07:05:01;98845.84;;;4.50;61.07
21594;BME280;10959;51.328;7.322;2024-03-08T07:07:29;98845.00;;;4.56;60.82
21594;BME280;10959;51.328;7.322;2024-03-08T07:09:57;98846.16;;;4.73;60.42
21594;BME280;10959;51.328;7.322;2024-03-08T07:12:23;98846.13;;;4.79;59.83
21594;BME280;10959;51.328;7.322;2024-03-08T07:14:52;98846.25;;;4.91;59.72
21594;BME280;10959;51.328;7.322;2024-03-08T07:17:20;98847.13;;;4.85;59.21
21594;BME280;10959;51.328;7.322;2024-03-08T07:19:47;98848.94;;;4.91;59.16
21594;BME280;10959;51.328;7.322;2024-03-08T07:22:14;98846.38;;;5.03;58.78
21594;BME280;10959;51.328;7.322;2024-03-08T07:24:41;98846.75;;;5.13;58.71
21594;BME280;10959;51.328;7.322;2024-03-08T07:27:21;98836.31;;;5.29;58.58
21594;BME280;10959;51.328;7.322;2024-03-08T07:29:47;98843.75;;;5.27;57.88
21594;BME280;10959;51.328;7.322;2024-03-08T07:32:15;98837.53;;;5.33;58.09
21594;BME280;10959;51.328;7.322;2024-03-08T07:34:46;98835.34;;;5.48;57.44
21594;BME280;10959;51.328;7.322;2024-03-08T07:37:13;98828.16;;;5.42;57.47
21594;BME280;10959;51.328;7.322;2024-03-08T07:39:40;98831.97;;;5.53;57.57
21594;BME280;10959;51.328;7.322;2024-03-08T07:42:07;98827.72;;;5.70;57.19
21594;BME280;10959;51.328;7.322;2024-03-08T07:44:33;98830.63;;;5.69;57.05
21594;BME280;10959;51.328;7.322;2024-03-08T07:46:59;98822.22;;;5.83;56.92
21594;BME280;10959;51.328;7.322;2024-03-08T07:49:27;98821.03;;;5.79;55.93
21594;BME280;10959;51.328;7.322;2024-03-08T07:51:54;98822.63;;;5.62;55.77
21594;BME280;10959;51.328;7.322;2024-03-08T07:54:20;98813.19;;;5.78;56.16
21594;BME280;10959;51.328;7.322;2024-03-08T07:56:46;98815.50;;;5.99;56.01
21594;BME280;10959;51.328;7.322;2024-03-08T07:59:13;98809.53;;;5.97;55.26
21594;BME280;10959;51.328;7.322;2024-03-08T08:01:39;98807.16;;;6.07;55.82
21594;BME280;10959;51.328;7.322;2024-03-08T08:04:06;98798.28;;;6.25;55.83
21594;BME280;10959;51.328;7.322;2024-03-08T08:06:38;98801.69;;;6.32;54.74
21594;BME280;10959;51.328;7.322;2024-03-08T08:09:06;98806.41;;;6.36;54.43
21594;BME280;10959;51.328;7.322;2024-03-08T08:11:35;98800.00;;;6.37;54.81
21594;BME280;10959;51.328;7.322;2024-03-08T08:14:01;98789.47;;;6.66;54.76
21594;BME280;10959;51.328;7.322;2024-03-08T08:16:28;98787.47;;;6.91;54.26
21594;BME280;10959;51.328;7.322;2024-03-08T08:18:54;98790.22;;;7.14;53.84
21594;BME280;10959;51.328;7.322;2024-03-08T08:21:21;98787.69;;;7.31;53.43
21594;BME280;10959;51.328;7.322;2024-03-08T08:23:48;98784.81;;;7.55;53.81
21594;BME280;10959;51.328;7.322;2024-03-08T08:26:15;98773.78;;;7.57;52.68
21594;BME280;10959;51.328;7.322;2024-03-08T08:28:42;98782.22;;;7.84;53.42
21594;BME280;10959;51.328;7.322;2024-03-08T08:31:11;98770.47;;;8.13;52.19
21594;BME280;10959;51.328;7.322;2024-03-08T08:33:38;98768.59;;;8.13;50.58
21594;BME280;10959;51.328;7.322;2024-03-08T08:36:06;98768.75;;;7.95;50.94
21594;BME280;10959;51.328;7.322;2024-03-08T08:38:32;98768.25;;;7.98;50.81
21594;BME280;10959;51.328;7.322;2024-03-08T08:41:00;98759.13;;;7.99;51.09
21594;BME280;10959;51.328;7.322;2024-03-08T08:43:27;98764.59;;;8.16;50.97
21594;BME280;10959;51.328;7.322;2024-03-08T08:45:54;98762.88;;;7.98;50.97
21594;BME280;10959;51.328;7.322;2024-03-08T08:48:20;98754.19;;;8.08;51.15
21594;BME280;10959;51.328;7.322;2024-03-08T08:50:47;98761.06;;;8.27;51.23
21594;BME280;10959;51.328;7.322;2024-03-08T08:53:15;98742.84;;;8.57;50.31
21594;BME280;10959;51.328;7.322;2024-03-08T08:55:42;98743.63;;;8.69;49.57
21594;BME280;10959;51.328;7.322;2024-03-08T08:58:12;98745.69;;;8.79;48.83
21594;BME280;10959;51.328;7.322;2024-03-08T09:00:39;98740.22;;;8.34;48.97
21594;BME280;10959;51.328;7.322;2024-03-08T09:03:05;98729.59;;;8.27;49.62
21594;BME280;10959;51.328;7.322;2024-03-08T09:05:32;98732.56;;;8.54;49.83
21594;BME280;10959;51.328;7.322;2024-03-08T09:08:00;98734.06;;;8.50;48.67
21594;BME280;10959;51.328;7.322;2024-03-08T09:10:26;98719.84;;;8.38;48.92
21594;BME280;10959;51.328;7.322;2024-03-08T09:12:53;98724.47;;;8.54;49.08
21594;BME280;10959;51.328;7.322;2024-03-08T09:15:21;98721.00;;;8.42;48.39
21594;BME280;10959;51.328;7.322;2024-03-08T09:17:47;98708.72;;;8.35;48.90
21594;BME280;10959;51.328;7.322;2024-03-08T09:20:14;98715.47;;;8.49;49.59
21594;BME280;10959;51.328;7.322;2024-03-08T09:22:43;98710.66;;;8.51;48.79
21594;BME280;10959;51.328;7.322;2024-03-08T09:25:10;98703.75;;;8.71;48.39
21594;BME280;10959;51.328;7.322;2024-03-08T09:27:36;98700.00;;;8.89;48.53
21594;BME280;10959;51.328;7.322;2024-03-08T09:30:05;98717.41;;;8.81;47.14
21594;BME280;10959;51.328;7.322;2024-03-08T09:32:33;98711.75;;;8.66;48.74
21594;BME280;10959;51.328;7.322;2024-03-08T09:35:00;98710.38;;;8.64;48.38
21594;BME280;10959;51.328;7.322;2024-03-08T09:37:26;98705.06;;;8.86;48.53
21594;BME280;10959;51.328;7.322;2024-03-08T09:39:53;98701.66;;;8.90;47.79
21594;BME280;10959;51.328;7.322;2024-03-08T09:42:19;98696.44;;;9.17;47.45
21594;BME280;10959;51.328;7.322;2024-03-08T09:44:46;98681.19;;;9.61;47.88
21594;BME280;10959;51.328;7.322;2024-03-08T09:47:13;98685.16;;;9.58;46.01
21594;BME280;10959;51.328;7.322;2024-03-08T09:49:41;98676.41;;;9.68;46.65
21594;BME280;10959;51.328;7.322;2024-03-08T09:52:08;98672.97;;;9.72;45.63
21594;BME280;10959;51.328;7.322;2024-03-08T09:54:35;98677.59;;;9.77;46.13
21594;BME280;10959;51.328;7.322;2024-03-08T09:57:03;98662.91;;;9.68;45.65
21594;BME280;10959;51.328;7.322;2024-03-08T09:59:30;98663.59;;;10.02;46.37
21594;BME280;10959;51.328;7.322;2024-03-08T10:02:15;98650.34;;;10.22;43.83
21594;BME280;10959;51.328;7.322;2024-03-08T10:04:44;98663.50;;;10.13;44.26
21594;BME280;10959;51.328;7.322;2024-03-08T10:07:12;98655.50;;;9.80;44.93
21594;BME280;10959;51.328;7.322;2024-03-08T10:09:39;98655.94;;;9.93;45.58
21594;BME280;10959;51.328;7.322;2024-03-08T10:12:07;98650.97;;;10.07;46.06
21594;BME280;10959;51.328;7.322;2024-03-08T10:14:34;98649.84;;;10.25;45.07
21594;BME280;10959;51.328;7.322;2024-03-08T10:17:01;98637.81;;;10.64;45.92
21594;BME280;10959;51.328;7.322;2024-03-08T10:19:30;98643.28;;;11.06;45.13
21594;BME280;10959;51.328;7.322;2024-03-08T10:21:59;98635.63;;;11.30;43.16
21594;BME280;10959;51.328;7.322;2024-03-08T10:24:26;98634.81;;;11.29;42.87
21594;BME280;10959;51.328;7.322;2024-03-08T10:26:52;98645.16;;;11.00;42.13
21594;BME280;10959;51.328;7.322;2024-03-08T10:29:20;98620.75;;;10.64;43.20
21594;BME280;10959;51.328;7.322;2024-03-08T10:31:46;98626.50;;;10.40;43.37
21594;BME280;10959;51.328;7.322;2024-03-08T10:34:13;98626.47;;;10.67;44.69
21594;BME280;10959;51.328;7.322;2024-03-08T10:36:40;98615.09;;;10.97;43.87
21594;BME280;10959;51.328;7.322;2024-03-08T10:39:18;98618.38;;;11.46;45.49
21594;BME280;10959;51.328;7.322;2024-03-08T10:41:52;98604.97;;;11.66;41.78
21594;BME280;10959;51.328;7.322;2024-03-08T10:44:34;98607.69;;;11.66;43.20
21594;BME280;10959;51.328;7.322;2024-03-08T10:47:15;98602.38;;;11.86;43.72
21594;BME280;10959;51.328;7.322;2024-03-08T10:49:51;98612.16;;;11.92;40.74
21594;BME280;10959;51.328;7.322;2024-03-08T10:52:20;98586.44;;;11.43;40.92
21594;BME280;10959;51.328;7.322;2024-03-08T10:54:48;98590.31;;;11.62;41.69
21594;BME280;10959;51.328;7.322;2024-03-08T10:57:18;98581.38;;;11.67;41.28
21594;BME280;10959;51.328;7.322;2024-03-08T10:59:46;98588.59;;;11.41;40.97
21594;BME280;10959;51.328;7.322;2024-03-08T11:02:16;98575.25;;;11.29;42.14
21594;BME280;10959;51.328;7.322;2024-03-08T11:04:46;98568.66;;;11.62;42.81
21594;BME280;10959;51.328;7.322;2024-03-08T11:07:14;98568.84;;;12.02;43.43
21594;BME280;10959;51.328;7.322;2024-03-08T11:09:42;98562.91;;;12.26;41.08
21594;BME280;10959;51.328;7.322;2024-03-08T11:12:21;98558.59;;;12.45;41.92
21594;BME280;10959;51.328;7.322;2024-03-08T11:14:51;98557.25;;;12.78;41.73
21594;BME280;10959;51.328;7.322;2024-03-08T11:17:26;98558.56;;;13.00;41.41
21594;BME280;10959;51.328;7.322;2024-03-08T11:19:55;98544.47;;;13.08;39.72
21594;BME280;10959;51.328;7.322;2024-03-08T11:22:22;98549.06;;;12.88;38.93
21594;BME280;10959;51.328;7.322;2024-03-08T11:24:52;98551.00;;;12.57;39.18
21594;BME280;10959;51.328;7.322;2024-03-08T11:27:20;98540.13;;;12.67;38.28
21594;BME280;10959;51.328;7.322;2024-03-08T11:29:59;98540.44;;;12.65;38.62
21594;BME280;10959;51.328;7.322;2024-03-08T11:32:35;98545.00;;;12.95;40.27
21594;BME280;10959;51.328;7.322;2024-03-08T11:35:02;98535.25;;;12.89;37.57
21594;BME280;10959;51.328;7.322;2024-03-08T11:37:33;98533.63;;;12.28;37.51
21594;BME280;10959;51.328;7.322;2024-03-08T11:40:01;98531.34;;;11.74;38.57
21594;BME280;10959;51.328;7.322;2024-03-08T11:42:31;98535.09;;;11.68;39.46
21594;BME280;10959;51.328;7.322;2024-03-08T11:44:57;98521.25;;;11.65;40.31
21594;BME280;10959;51.328;7.322;2024-03-08T11:47:24;98521.13;;;11.96;39.23
21594;BME280;10959;51.328;7.322;2024-03-08T11:49:51;98513.56;;;12.29;39.89
21594;BME280;10959;51.328;7.322;2024-03-08T11:52:18;98514.13;;;12.41;40.07
21594;BME280;10959;51.328;7.322;2024-03-08T11:54:49;98495.38;;;12.04;38.60
21594;BME280;10959;51.328;7.322;2024-03-08T11:57:17;98496.75;;;12.12;38.10
21594;BME280;10959;51.328;7.322;2024-03-08T11:59:50;98500.78;;;11.84;38.31
21594;BME280;10959;51.328;7.322;2024-03-08T12:02:17;98491.75;;;11.63;38.40
21594;BME280;10959;51.328;7.322;2024-03-08T12:04:44;98493.88;;;11.56;38.70
21594;BME280;10959;51.328;7.322;2024-03-08T12:07:11;98470.69;;;11.75;38.65
21594;BME280;10959;51.328;7.322;2024-03-08T12:09:39;98475.06;;;12.12;39.76
21594;BME280;10959;51.328;7.322;2024-03-08T12:12:11;98487.00;;;12.56;39.06
21594;BME280;10959;51.328;7.322;2024-03-08T12:14:38;98475.03;;;12.67;38.64
21594;BME280;10959;51.328;7.322;2024-03-08T12:17:06;98464.22;;;12.52;39.77
21594;BME280;10959;51.328;7.322;2024-03-08T12:19:32;98457.16;;;12.56;39.58
21594;BME280;10959;51.328;7.322;2024-03-08T12:22:07;98466.94;;;12.47;38.50
21594;BME280;10959;51.328;7.322;2024-03-08T12:24:35;98450.91;;;12.45;39.93
21594;BME280;10959;51.328;7.322;2024-03-08T12:27:17;98445.22;;;12.72;41.65
21594;BME280;10959;51.328;7.322;2024-03-08T12:29:44;98446.19;;;13.01;39.58
21594;BME280;10959;51.328;7.322;2024-03-08T12:32:11;98433.19;;;12.93;38.76
21594;BME280;10959;51.328;7.322;2024-03-08T12:34:38;98441.97;;;12.60;37.85
21594;BME280;10959;51.328;7.322;2024-03-08T12:37:06;98446.84;;;12.43;38.00
21594;BME280;10959;51.328;7.322;2024-03-08T12:39:34;98433.88;;;12.20;39.29
21594;BME280;10959;51.328;7.322;2024-03-08T12:42:02;98432.78;;;11.95;39.30
21594;BME280;10959;51.328;7.322;2024-03-08T12:44:29;98423.28;;;12.33;39.59
21594;BME280;10959;51.328;7.322;2024-03-08T12:46:55;98429.00;;;12.27;37.80
21594;BME280;10959;51.328;7.322;2024-03-08T12:49:25;98418.69;;;12.03;38.38
21594;BME280;10959;51.328;7.322;2024-03-08T12:51:52;98416.75;;;11.69;38.52
21594;BME280;10959;51.328;7.322;2024-03-08T12:54:18;98413.19;;;11.53;38.50
21594;BME280;10959;51.328;7.322;2024-03-08T12:56:48;98407.16;;;11.31;39.91
21594;BME280;10959;51.328;7.322;2024-03-08T12:59:18;98404.44;;;11.31;39.47
21594;BME280;10959;51.328;7.322;2024-03-08T13:01:45;98401.53;;;11.52;39.71
21594;BME280;10959;51.328;7.322;2024-03-08T13:04:12;98396.41;;;11.56;39.55
21594;BME280;10959;51.328;7.322;2024-03-08T13:06:41;98395.31;;;11.62;39.66
21594;BME280;10959;51.328;7.322;2024-03-08T13:09:08;98396.97;;;11.63;39.48